Time;durP1;ratioP1;P1;durP2;ratioP2;P2;SDS_P1;SDS_P2;PMS_P1;PMS_P2;Temp;Humidity;BMP_temperature;BMP_pressure;BME280_temperature;BME280_humidity;BME280_pressure;Samples;Min_cycle;Max_cycle;Signal;HPM_P1;HPM_P2
2023/05/04 00:00:33;;;;;;;22.75;10.65;;;8.90;99.90;;;;;;5077748;28;20475;-59
2023/05/04 00:03:00;;;;;;;26.05;10.43;;;8.90;99.90;;;;;;5095657;28;20051;-60
2023/05/04 00:05:26;;;;;;;20.58;10.93;;;8.90;99.90;;;;;;5095369;28;20047;-61
2023/05/04 00:07:53;;;;;;;20.85;10.82;;;8.90;99.90;;;;;;5095627;28;20097;-61
2023/05/04 00:10:20;;;;;;;21.77;10.75;;;8.90;99.90;;;;;;5095408;28;20048;-60
2023/05/04 00:12:47;;;;;;;21.35;11.07;;;8.90;99.90;;;;;;5095326;28;20487;-60
2023/05/04 00:15:14;;;;;;;20.52;9.80;;;8.90;99.90;;;;;;5095260;28;20414;-59
2023/05/04 00:17:40;;;;;;;25.75;11.20;;;8.90;99.90;;;;;;5095293;28;20040;-60
2023/05/04 00:20:07;;;;;;;28.27;11.82;;;8.90;99.90;;;;;;5095208;28;20545;-61
2023/05/04 00:22:34;;;;;;;24.17;11.77;;;8.90;99.90;;;;;;5095360;28;20125;-61
2023/05/04 00:25:00;;;;;;;22.25;11.07;;;8.90;99.90;;;;;;5077340;28;20491;-60
2023/05/04 00:27:27;;;;;;;24.15;11.02;;;8.90;99.90;;;;;;5077172;28;20040;-60
2023/05/04 00:29:54;;;;;;;23.88;10.75;;;8.90;99.90;;;;;;5093220;28;20040;-60
2023/05/04 00:32:21;;;;;;;23.33;10.98;;;8.90;99.90;;;;;;5077154;28;20067;-61
2023/05/04 00:34:48;;;;;;;25.88;11.85;;;8.90;99.90;;;;;;5076553;28;20065;-60
2023/05/04 00:37:14;;;;;;;24.42;12.73;;;8.90;99.90;;;;;;5076602;28;20048;-61
2023/05/04 00:39:41;;;;;;;25.38;11.77;;;8.80;99.90;;;;;;5076742;28;20040;-60
2023/05/04 00:42:08;;;;;;;24.85;12.48;;;8.90;99.90;;;;;;5094878;28;20036;-59
2023/05/04 00:44:35;;;;;;;22.27;12.30;;;8.80;99.90;;;;;;5094984;28;20105;-61
2023/05/04 00:47:02;;;;;;;32.83;14.10;;;8.80;99.90;;;;;;5094725;28;20052;-61
2023/05/04 00:49:29;;;;;;;36.75;15.15;;;8.80;99.90;;;;;;5094254;28;20047;-60
2023/05/04 00:51:55;;;;;;;24.83;14.40;;;8.80;99.90;;;;;;5094429;28;20051;-59
2023/05/04 00:54:22;;;;;;;31.60;14.05;;;8.80;99.90;;;;;;5094757;28;20451;-60
2023/05/04 00:56:49;;;;;;;32.78;15.73;;;8.70;99.90;;;;;;5076279;28;20090;-62
2023/05/04 00:59:16;;;;;;;30.20;15.18;;;8.70;99.90;;;;;;5076195;28;20089;-61
2023/05/04 01:01:42;;;;;;;25.40;14.98;;;8.70;99.90;;;;;;5075991;28;20055;-60
2023/05/04 01:04:09;;;;;;;26.10;14.90;;;8.70;99.90;;;;;;5076052;28;20093;-60
2023/05/04 01:06:36;;;;;;;30.02;15.35;;;8.70;99.90;;;;;;5076207;28;20083;-63
2023/05/04 01:09:03;;;;;;;25.92;14.93;;;8.70;99.90;;;;;;5094565;28;20475;-61
2023/05/04 01:11:30;;;;;;;34.65;14.90;;;8.60;99.90;;;;;;5075967;28;20077;-60
2023/05/04 01:13:56;;;;;;;31.85;16.42;;;8.60;99.90;;;;;;5093995;28;20040;-61
2023/05/04 01:16:23;;;;;;;36.70;17.15;;;8.60;99.90;;;;;;5094366;28;20040;-59
2023/05/04 01:18:50;;;;;;;29.25;16.38;;;8.60;99.90;;;;;;5094200;28;20102;-58
2023/05/04 01:21:17;;;;;;;32.42;16.60;;;8.60;99.90;;;;;;5093848;28;20036;-61
2023/05/04 01:23:43;;;;;;;31.25;16.02;;;8.60;99.90;;;;;;5094140;28;20123;-58
2023/05/04 01:26:10;;;;;;;32.78;16.20;;;8.60;99.90;;;;;;5094397;28;20047;-61
2023/05/04 01:28:37;;;;;;;31.15;17.33;;;8.60;99.90;;;;;;5076177;28;20048;-60
2023/05/04 01:31:04;;;;;;;30.13;16.48;;;8.60;99.90;;;;;;5075522;28;20048;-61
2023/05/04 01:33:31;;;;;;;35.55;17.50;;;8.60;99.90;;;;;;5094136;28;20101;-57
2023/05/04 01:35:57;;;;;;;33.60;17.15;;;8.60;99.90;;;;;;5094205;28;20066;-58
2023/05/04 01:38:24;;;;;;;33.83;16.52;;;8.60;99.90;;;;;;5093755;28;20040;-61
2023/05/04 01:40:51;;;;;;;32.10;17.98;;;8.60;99.90;;;;;;5094138;28;20043;-60
2023/05/04 01:43:17;;;;;;;30.48;18.25;;;8.60;99.90;;;;;;5093934;28;20528;-61
2023/05/04 01:45:44;;;;;;;34.60;19.23;;;8.60;99.90;;;;;;5094049;28;20044;-60
2023/05/04 01:48:11;;;;;;;34.50;18.73;;;8.60;99.90;;;;;;5093823;28;20064;-60
2023/05/04 01:50:38;;;;;;;33.97;19.08;;;8.60;99.90;;;;;;5075552;28;20055;-59
2023/05/04 01:53:04;;;;;;;35.92;19.35;;;8.60;99.90;;;;;;5075593;28;20036;-60
2023/05/04 01:55:31;;;;;;;31.13;19.63;;;8.70;99.90;;;;;;5075572;28;20044;-61
2023/05/04 01:57:58;;;;;;;32.53;19.45;;;8.70;99.90;;;;;;5093549;28;20064;-60
2023/05/04 02:00:24;;;;;;;38.08;19.42;;;8.70;99.90;;;;;;5093560;28;20067;-61
2023/05/04 02:02:51;;;;;;;33.58;19.42;;;8.70;99.90;;;;;;5093499;28;20093;-61
2023/05/04 02:05:18;;;;;;;36.90;20.35;;;8.70;99.90;;;;;;5093261;28;20055;-60
2023/05/04 02:07:47;;;;;;;34.65;19.38;;;8.70;99.90;;;;;;5075155;28;20040;-60
2023/05/04 02:10:14;;;;;;;35.40;20.42;;;8.70;99.90;;;;;;5093466;28;20060;-61
2023/05/04 02:12:41;;;;;;;32.28;19.90;;;8.70;99.90;;;;;;5075752;28;20044;-60
2023/05/04 02:15:08;;;;;;;30.50;19.60;;;8.80;99.90;;;;;;5093546;28;20490;-57
2023/05/04 02:17:35;;;;;;;32.45;19.85;;;8.80;99.90;;;;;;5075281;28;20070;-61
2023/05/04 02:20:03;;;;;;;33.33;19.10;;;8.80;99.90;;;;;;5074966;28;20040;-57
2023/05/04 02:22:30;;;;;;;36.80;20.27;;;8.80;99.90;;;;;;5075622;28;20048;-61
2023/05/04 02:24:57;;;;;;;33.80;20.63;;;8.90;99.90;;;;;;5077049;28;20055;-60
2023/05/04 02:27:24;;;;;;;35.22;21.55;;;8.90;99.90;;;;;;5079248;28;20081;-61
2023/05/04 02:29:51;;;;;;;34.83;20.85;;;8.90;99.90;;;;;;5079445;28;20040;-62
2023/05/04 02:32:18;;;;;;;38.00;21.65;;;8.90;99.90;;;;;;5079032;28;20040;-58
2023/05/04 02:34:44;;;;;;;32.33;19.80;;;8.90;99.90;;;;;;5097002;28;20119;-59
2023/05/04 02:37:11;;;;;;;36.50;20.92;;;8.90;99.90;;;;;;5097479;28;20075;-58
2023/05/04 02:39:38;;;;;;;33.50;21.33;;;8.90;99.90;;;;;;5079089;28;20101;-60
2023/05/04 02:42:05;;;;;;;34.03;21.80;;;8.90;99.90;;;;;;5096829;28;20071;-60
2023/05/04 02:44:32;;;;;;;41.20;21.45;;;8.90;99.90;;;;;;5096986;28;20375;-60
2023/05/04 02:46:58;;;;;;;34.50;21.35;;;8.90;99.90;;;;;;5096818;28;20051;-58
2023/05/04 02:49:28;;;;;;;35.03;22.20;;;8.80;99.90;;;;;;5097161;28;20516;-61
2023/05/04 02:51:55;;;;;;;37.10;20.88;;;8.80;99.90;;;;;;5078924;28;20499;-60
2023/05/04 02:54:22;;;;;;;34.67;22.00;;;8.80;99.90;;;;;;5078419;28;20051;-58
2023/05/04 02:56:48;;;;;;;38.78;22.45;;;8.80;99.90;;;;;;5078316;28;20097;-59
2023/05/04 02:59:15;;;;;;;32.25;21.58;;;8.80;99.90;;;;;;5078444;28;20044;-60
2023/05/04 03:01:42;;;;;;;39.33;21.45;;;8.80;99.90;;;;;;5078682;28;20123;-60
2023/05/04 03:04:09;;;;;;;36.85;22.65;;;8.70;99.90;;;;;;5097164;28;20514;-60
2023/05/04 03:06:35;;;;;;;38.30;21.85;;;8.70;99.90;;;;;;5097009;28;20708;-61
2023/05/04 03:09:03;;;;;;;38.15;23.08;;;8.70;99.90;;;;;;5096833;28;20040;-60
2023/05/04 03:11:30;;;;;;;34.05;22.23;;;8.70;99.90;;;;;;5096141;28;20047;-60
2023/05/04 03:13:57;;;;;;;32.60;22.02;;;8.70;99.90;;;;;;5078395;28;20051;-60
2023/05/04 03:16:23;;;;;;;38.63;22.60;;;8.70;99.90;;;;;;5096581;28;20055;-60
2023/05/04 03:18:50;;;;;;;43.03;23.67;;;8.70;99.90;;;;;;5096632;28;20040;-61
2023/05/04 03:21:17;;;;;;;37.72;22.25;;;8.70;99.90;;;;;;5078335;28;20047;-60
2023/05/04 03:23:44;;;;;;;34.90;23.17;;;8.70;99.90;;;;;;5078230;28;20055;-61
2023/05/04 03:26:11;;;;;;;39.22;24.13;;;8.70;99.90;;;;;;5096013;28;20089;-61
2023/05/04 03:28:37;;;;;;;38.50;22.95;;;8.70;99.90;;;;;;5096630;28;20040;-60
2023/05/04 03:31:04;;;;;;;36.88;23.23;;;8.70;99.90;;;;;;5078280;28;20041;-60
2023/05/04 03:33:31;;;;;;;38.80;24.38;;;8.70;99.90;;;;;;5096352;28;20070;-61
2023/05/04 03:35:58;;;;;;;37.10;23.73;;;8.70;99.90;;;;;;5077603;28;20032;-61
2023/05/04 03:38:25;;;;;;;45.03;23.10;;;8.70;99.90;;;;;;5078437;28;20036;-60
2023/05/04 03:40:53;;;;;;;42.55;23.92;;;8.70;99.90;;;;;;5077913;28;20044;-60
2023/05/04 03:43:21;;;;;;;37.00;24.25;;;8.70;99.90;;;;;;5078073;28;20085;-60
2023/05/04 03:45:48;;;;;;;40.50;25.40;;;8.70;99.90;;;;;;5078089;28;20356;-61
2023/05/04 03:48:16;;;;;;;36.92;25.13;;;8.80;99.90;;;;;;5077682;28;20044;-61
2023/05/04 03:50:43;;;;;;;36.78;25.30;;;8.70;99.90;;;;;;5077571;28;20164;-61
2023/05/04 03:53:09;;;;;;;40.97;24.00;;;8.70;99.90;;;;;;5077813;28;20443;-61
2023/05/04 03:55:37;;;;;;;42.05;24.30;;;8.70;99.90;;;;;;5077553;28;20053;-59
2023/05/04 03:58:04;;;;;;;39.22;24.00;;;8.70;99.90;;;;;;5077911;28;20131;-61
2023/05/04 04:00:31;;;;;;;46.50;26.17;;;8.70;99.90;;;;;;5095664;28;20043;-61
2023/05/04 04:03:07;;;;;;;36.83;23.83;;;8.80;99.90;;;;;;5077715;28;20048;-60
2023/05/04 04:05:35;;;;;;;38.15;23.90;;;8.80;99.90;;;;;;5077319;28;20044;-58
2023/05/04 04:08:02;;;;;;;43.83;24.65;;;8.80;99.90;;;;;;5077374;28;20036;-60
2023/05/04 04:10:29;;;;;;;36.30;24.02;;;8.80;99.90;;;;;;5077067;28;20059;-59
2023/05/04 04:12:56;;;;;;;31.75;23.67;;;8.80;99.90;;;;;;5077809;28;20544;-61
2023/05/04 04:15:23;;;;;;;41.45;24.98;;;8.80;99.90;;;;;;5095225;28;20087;-60
2023/05/04 04:17:50;;;;;;;36.03;23.73;;;8.80;99.90;;;;;;5095483;28;20040;-59
2023/05/04 04:20:16;;;;;;;32.85;23.38;;;8.90;99.90;;;;;;5095494;28;20428;-59
2023/05/04 04:22:43;;;;;;;38.45;25.17;;;8.90;99.90;;;;;;5095316;28;20048;-58
2023/05/04 04:25:11;;;;;;;37.35;24.23;;;8.90;99.90;;;;;;5095062;28;20040;-60
2023/05/04 04:27:37;;;;;;;37.85;24.55;;;8.90;99.90;;;;;;5095186;28;20048;-59
2023/05/04 04:30:04;;;;;;;44.92;25.45;;;8.90;99.90;;;;;;5095468;28;20055;-60
2023/05/04 04:32:32;;;;;;;39.60;25.20;;;8.90;99.90;;;;;;5095384;28;20044;-60
2023/05/04 04:34:59;;;;;;;42.30;24.50;;;9.00;99.90;;;;;;5095274;28;20081;-61
2023/05/04 04:37:27;;;;;;;39.92;25.40;;;9.00;99.90;;;;;;5095370;28;20435;-61
2023/05/04 04:39:53;;;;;;;38.50;24.77;;;9.00;99.90;;;;;;5094837;28;20441;-61
2023/05/04 04:42:20;;;;;;;41.47;25.58;;;9.00;99.90;;;;;;5095037;28;20067;-61
2023/05/04 04:44:48;;;;;;;40.75;25.73;;;9.00;99.90;;;;;;5094720;28;20067;-61
2023/05/04 04:47:15;;;;;;;36.75;24.50;;;9.10;99.90;;;;;;5094696;28;20048;-61
2023/05/04 04:49:43;;;;;;;37.30;24.25;;;9.10;99.90;;;;;;5094050;28;20059;-60
2023/05/04 04:52:10;;;;;;;39.33;23.58;;;9.10;99.90;;;;;;5095212;28;20040;-61
2023/05/04 04:54:37;;;;;;;35.88;24.63;;;9.20;99.90;;;;;;5094877;28;20036;-60
2023/05/04 04:57:05;;;;;;;32.78;23.45;;;9.20;99.90;;;;;;5094721;28;20478;-60
2023/05/04 04:59:31;;;;;;;39.45;24.52;;;9.30;99.90;;;;;;5094667;28;20052;-61
2023/05/04 05:01:59;;;;;;;35.13;24.48;;;9.40;99.90;;;;;;5094985;28;20379;-62
2023/05/04 05:04:26;;;;;;;36.58;24.63;;;9.50;99.90;;;;;;5094801;28;20047;-60
2023/05/04 05:06:53;;;;;;;38.33;23.55;;;9.50;99.90;;;;;;5094587;28;20091;-62
2023/05/04 05:09:19;;;;;;;35.47;24.10;;;9.50;99.90;;;;;;5076688;28;20048;-60
2023/05/04 05:11:46;;;;;;;29.92;22.50;;;9.60;99.90;;;;;;5094407;28;20071;-60
2023/05/04 05:14:13;;;;;;;35.38;23.48;;;9.60;99.90;;;;;;5094270;28;20044;-59
2023/05/04 05:16:39;;;;;;;35.45;22.85;;;9.70;99.90;;;;;;5094285;28;20070;-60
2023/05/04 05:19:06;;;;;;;34.95;22.85;;;9.70;99.90;;;;;;5094489;28;20064;-59
2023/05/04 05:21:33;;;;;;;33.75;22.85;;;9.80;99.90;;;;;;5094282;28;20048;-60
2023/05/04 05:24:00;;;;;;;35.00;22.17;;;9.80;99.90;;;;;;5076465;28;20072;-59
2023/05/04 05:26:27;;;;;;;30.58;21.85;;;9.90;99.90;;;;;;5076350;28;20104;-58
2023/05/04 05:28:54;;;;;;;35.15;20.63;;;9.90;99.90;;;;;;5075749;28;20047;-61
2023/05/04 05:31:20;;;;;;;31.50;20.23;;;10.00;99.90;;;;;;5094138;28;20078;-60
2023/05/04 05:33:48;;;;;;;31.95;20.35;;;10.00;99.90;;;;;;5075657;28;20415;-60
2023/05/04 05:36:14;;;;;;;32.80;21.13;;;10.00;99.90;;;;;;5076220;28;20048;-62
2023/05/04 05:38:41;;;;;;;32.85;21.60;;;10.00;99.90;;;;;;5093950;28;20048;-61
2023/05/04 05:41:08;;;;;;;29.58;20.98;;;10.10;99.90;;;;;;5093728;28;20544;-59
2023/05/04 05:43:37;;;;;;;39.00;20.90;;;10.10;99.90;;;;;;5094052;28;20093;-60
2023/05/04 05:46:04;;;;;;;36.53;21.48;;;10.10;99.90;;;;;;5093809;28;20040;-62
2023/05/04 05:48:31;;;;;;;29.85;21.58;;;10.20;99.90;;;;;;5093733;28;20048;-60
2023/05/04 05:50:57;;;;;;;29.27;20.40;;;10.30;99.90;;;;;;5093880;28;20036;-58
2023/05/04 05:53:24;;;;;;;29.13;20.25;;;10.30;99.90;;;;;;5093798;28;20044;-61
2023/05/04 05:55:51;;;;;;;28.95;20.73;;;10.40;99.90;;;;;;5075694;28;20044;-61
2023/05/04 05:58:18;;;;;;;34.78;21.30;;;10.40;99.90;;;;;;5093911;28;20036;-60
2023/05/04 06:00:46;;;;;;;29.38;19.98;;;10.50;99.90;;;;;;5075524;28;20491;-61
2023/05/04 06:03:13;;;;;;;32.05;19.55;;;10.50;99.90;;;;;;5093436;28;20036;-61
2023/05/04 06:05:40;;;;;;;32.63;20.23;;;10.50;99.90;;;;;;5094058;28;20062;-60
2023/05/04 06:08:07;;;;;;;26.58;18.52;;;10.60;99.90;;;;;;5075823;28;20063;-61
2023/05/04 06:10:33;;;;;;;29.17;20.05;;;10.70;99.90;;;;;;5093357;28;20089;-60
2023/05/04 06:13:00;;;;;;;27.15;19.00;;;10.80;99.90;;;;;;5094023;28;20048;-61
2023/05/04 06:15:27;;;;;;;28.20;19.83;;;10.80;99.90;;;;;;5093805;28;20356;-61
2023/05/04 06:17:54;;;;;;;23.67;18.15;;;10.90;99.90;;;;;;5093924;28;20471;-60
2023/05/04 06:20:21;;;;;;;31.42;18.85;;;10.90;99.90;;;;;;5093470;28;20036;-61
2023/05/04 06:22:48;;;;;;;28.60;18.27;;;11.00;99.90;;;;;;5093604;28;20040;-61
2023/05/04 06:25:15;;;;;;;27.30;17.65;;;11.10;99.90;;;;;;5075348;28;20047;-61
2023/05/04 06:27:41;;;;;;;26.48;17.25;;;11.20;99.90;;;;;;5093523;28;20526;-60
2023/05/04 06:30:08;;;;;;;25.08;18.10;;;11.20;99.90;;;;;;5075191;28;20141;-60
2023/05/04 06:32:35;;;;;;;32.33;18.75;;;11.30;99.90;;;;;;5093807;28;20066;-61
2023/05/04 06:35:02;;;;;;;26.95;17.67;;;11.40;99.90;;;;;;5093414;28;20036;-58
2023/05/04 06:37:29;;;;;;;25.10;17.17;;;11.40;99.90;;;;;;5075503;28;20047;-60
2023/05/04 06:39:55;;;;;;;27.77;18.30;;;11.50;99.90;;;;;;5093565;28;20107;-61
2023/05/04 06:42:22;;;;;;;26.95;17.83;;;11.50;99.90;;;;;;5093675;28;20045;-59
2023/05/04 06:44:51;;;;;;;24.73;17.83;;;11.60;99.90;;;;;;5075490;28;20058;-60
2023/05/04 06:47:17;;;;;;;25.05;17.77;;;11.60;99.90;;;;;;5093645;28;20444;-61
2023/05/04 06:49:44;;;;;;;29.67;18.42;;;11.70;99.90;;;;;;5092806;28;20082;-60
2023/05/04 06:52:11;;;;;;;26.92;17.08;;;11.70;99.90;;;;;;5093120;28;20063;-60
2023/05/04 06:54:38;;;;;;;27.50;17.73;;;11.80;99.90;;;;;;5093071;28;20050;-62
2023/05/04 06:57:06;;;;;;;27.38;17.05;;;11.90;99.90;;;;;;5093127;28;20386;-59
2023/05/04 06:59:33;;;;;;;26.27;17.63;;;11.90;99.90;;;;;;5092792;28;20044;-59
2023/05/04 07:01:59;;;;;;;26.10;18.13;;;11.90;99.90;;;;;;5092958;28;20070;-58
2023/05/04 07:04:26;;;;;;;25.40;17.40;;;12.00;99.90;;;;;;5091588;28;20094;-59
2023/05/04 07:06:53;;;;;;;26.38;17.58;;;11.90;99.90;;;;;;5091616;28;20109;-59
2023/05/04 07:09:21;;;;;;;26.42;17.33;;;12.00;99.90;;;;;;5073543;28;20592;-60
2023/05/04 07:11:48;;;;;;;27.55;17.10;;;12.00;99.90;;;;;;5092737;28;20498;-58
2023/05/04 07:14:14;;;;;;;27.75;18.00;;;12.10;99.90;;;;;;5094775;28;20386;-57
2023/05/04 07:16:41;;;;;;;27.80;17.10;;;12.20;99.90;;;;;;5094077;28;20051;-60
2023/05/04 07:19:09;;;;;;;24.45;17.70;;;12.20;99.90;;;;;;5095698;28;20446;-58
2023/05/04 07:21:36;;;;;;;24.67;17.27;;;12.40;99.90;;;;;;5096318;28;20036;-60
2023/05/04 07:24:03;;;;;;;26.77;16.55;;;12.50;99.90;;;;;;5096366;28;20179;-60
2023/05/04 07:26:30;;;;;;;23.80;16.27;;;12.60;99.90;;;;;;5078274;28;20044;-60
2023/05/04 07:28:56;;;;;;;26.83;16.55;;;12.80;99.90;;;;;;5078210;28;20048;-61
2023/05/04 07:31:23;;;;;;;33.17;16.20;;;12.80;99.90;;;;;;5095919;28;20036;-59
2023/05/04 07:33:50;;;;;;;26.80;16.50;;;12.80;99.90;;;;;;5096492;28;20044;-60
2023/05/04 07:36:17;;;;;;;24.98;15.50;;;12.90;99.90;;;;;;5096489;28;20043;-61
2023/05/04 07:38:43;;;;;;;22.80;15.68;;;12.90;99.90;;;;;;5096219;28;20067;-57
2023/05/04 07:41:10;;;;;;;26.23;15.60;;;13.10;99.90;;;;;;5096455;28;20044;-60
2023/05/04 07:43:37;;;;;;;29.15;16.35;;;13.20;99.90;;;;;;5096341;28;20089;-61
2023/05/04 07:46:04;;;;;;;24.77;16.77;;;13.20;99.90;;;;;;5096161;28;20479;-61
2023/05/04 07:48:31;;;;;;;23.88;15.13;;;13.20;99.90;;;;;;5077854;28;20040;-61
2023/05/04 07:50:57;;;;;;;21.02;15.55;;;13.30;99.90;;;;;;5095954;28;20040;-62
2023/05/04 07:53:25;;;;;;;25.70;16.17;;;13.30;99.90;;;;;;5095937;28;20078;-58
2023/05/04 07:55:53;;;;;;;24.95;15.70;;;13.20;99.90;;;;;;5095728;28;20044;-64
2023/05/04 07:58:19;;;;;;;27.13;15.25;;;13.10;99.90;;;;;;5095810;28;20036;-60
2023/05/04 08:00:46;;;;;;;23.88;15.27;;;13.00;99.90;;;;;;5095747;28;20526;-60
2023/05/04 08:03:13;;;;;;;25.90;15.95;;;13.00;99.90;;;;;;5095762;28;20055;-61
2023/05/04 08:05:40;;;;;;;21.98;15.77;;;13.00;99.90;;;;;;5095704;28;20040;-61
2023/05/04 08:08:07;;;;;;;22.90;16.35;;;13.10;99.90;;;;;;5095231;28;20040;-62
2023/05/04 08:10:34;;;;;;;24.60;16.52;;;13.20;99.90;;;;;;5095448;28;20072;-60
2023/05/04 08:13:00;;;;;;;21.38;15.98;;;13.20;99.90;;;;;;5095328;28;20422;-61
2023/05/04 08:15:27;;;;;;;23.33;15.02;;;13.30;99.90;;;;;;5076916;28;20399;-61
2023/05/04 08:17:54;;;;;;;22.42;14.88;;;13.40;99.90;;;;;;5095445;28;20040;-61
2023/05/04 08:20:21;;;;;;;22.42;15.13;;;13.60;99.90;;;;;;5095296;28;20040;-61
2023/05/04 08:22:49;;;;;;;25.00;15.68;;;13.80;99.90;;;;;;5077351;28;20071;-61
2023/05/04 08:25:16;;;;;;;20.65;14.55;;;14.00;99.90;;;;;;5095102;28;20097;-61
2023/05/04 08:27:43;;;;;;;26.20;15.20;;;14.10;99.90;;;;;;5095239;28;20483;-61
2023/05/04 08:30:10;;;;;;;21.38;14.57;;;14.10;99.90;;;;;;5095290;28;20040;-61
2023/05/04 08:32:37;;;;;;;23.35;14.25;;;14.10;99.90;;;;;;5094988;28;20122;-60
2023/05/04 08:35:04;;;;;;;22.10;14.95;;;14.20;99.90;;;;;;5094809;28;20127;-59
2023/05/04 08:37:31;;;;;;;24.10;14.52;;;14.20;99.90;;;;;;5094791;28;20501;-60
2023/05/04 08:39:58;;;;;;;25.25;14.98;;;14.20;99.90;;;;;;5094980;28;20043;-62
2023/05/04 08:42:24;;;;;;;22.23;14.60;;;14.20;99.90;;;;;;5076717;28;20482;-62
2023/05/04 08:44:51;;;;;;;21.73;14.68;;;14.30;99.90;;;;;;5095187;28;20126;-61
2023/05/04 08:47:18;;;;;;;22.02;14.65;;;14.30;99.90;;;;;;5094907;28;20032;-62
2023/05/04 08:49:45;;;;;;;24.75;14.73;;;14.30;99.90;;;;;;5094679;28;20036;-62
2023/05/04 08:52:12;;;;;;;20.17;14.07;;;14.30;99.90;;;;;;5094919;28;20124;-61
2023/05/04 08:54:39;;;;;;;25.15;14.25;;;14.40;99.90;;;;;;5095040;28;20336;-62
2023/05/04 08:57:06;;;;;;;22.58;15.48;;;14.40;99.90;;;;;;5094539;28;20040;-61
2023/05/04 08:59:32;;;;;;;22.10;14.18;;;14.30;99.90;;;;;;5094549;28;20501;-61
2023/05/04 09:01:59;;;;;;;20.75;14.95;;;14.20;99.90;;;;;;5094727;28;20040;-62
2023/05/04 09:04:26;;;;;;;19.15;13.75;;;14.10;99.90;;;;;;5094733;28;20078;-59
2023/05/04 09:06:55;;;;;;;22.80;14.43;;;14.10;99.90;;;;;;5094601;28;20553;-62
2023/05/04 09:09:22;;;;;;;23.17;14.13;;;14.20;99.90;;;;;;5094445;28;20067;-60
2023/05/04 09:11:49;;;;;;;28.95;14.55;;;14.30;99.90;;;;;;5094266;28;20062;-60
2023/05/04 09:14:15;;;;;;;25.45;14.35;;;14.30;99.90;;;;;;5094407;28;20052;-60
2023/05/04 09:16:42;;;;;;;23.27;14.30;;;14.40;99.90;;;;;;5094320;28;20078;-60
2023/05/04 09:19:09;;;;;;;25.48;14.38;;;14.40;99.90;;;;;;5094580;28;20068;-60
2023/05/04 09:21:37;;;;;;;25.40;14.73;;;14.50;99.90;;;;;;5094196;28;20491;-61
2023/05/04 09:24:05;;;;;;;21.60;15.48;;;14.50;99.90;;;;;;5094295;28;20032;-60
2023/05/04 09:26:31;;;;;;;24.50;14.90;;;14.60;99.90;;;;;;5094457;28;20475;-60
2023/05/04 09:28:58;;;;;;;26.90;13.85;;;14.60;99.90;;;;;;5094467;28;20055;-61
2023/05/04 09:31:25;;;;;;;26.08;16.02;;;14.70;99.90;;;;;;5094011;28;20414;-61
2023/05/04 09:33:52;;;;;;;23.48;14.38;;;14.70;99.90;;;;;;5093784;28;20093;-60
2023/05/04 09:36:20;;;;;;;29.33;16.20;;;14.80;99.90;;;;;;5094308;28;20036;-63
2023/05/04 09:38:47;;;;;;;24.05;14.75;;;14.90;99.90;;;;;;5075983;28;20055;-62
2023/05/04 09:41:14;;;;;;;21.95;14.57;;;14.90;99.90;;;;;;5093965;28;20050;-59
2023/05/04 09:43:41;;;;;;;23.55;14.65;;;15.10;99.90;;;;;;5094117;28;20036;-61
2023/05/04 09:46:08;;;;;;;22.50;14.73;;;15.10;99.90;;;;;;5094079;28;20036;-59
2023/05/04 09:48:35;;;;;;;36.35;14.65;;;15.20;99.90;;;;;;5076010;28;20479;-61
2023/05/04 09:51:05;;;;;;;26.92;14.07;;;15.30;99.90;;;;;;5093828;28;20044;-60
2023/05/04 09:53:31;;;;;;;26.70;15.05;;;15.40;99.90;;;;;;5075994;28;20040;-61
2023/05/04 09:55:58;;;;;;;29.77;15.40;;;15.60;99.90;;;;;;5093392;28;20036;-61
2023/05/04 09:58:28;;;;;;;27.35;14.88;;;15.70;99.90;;;;;;5093457;28;20043;-60
2023/05/04 10:00:56;;;;;;;23.83;14.32;;;15.80;99.90;;;;;;5093492;28;20032;-61
2023/05/04 10:03:22;;;;;;;24.80;13.65;;;15.80;99.90;;;;;;5093703;28;20105;-60
2023/05/04 10:05:49;;;;;;;20.65;14.18;;;15.80;99.90;;;;;;5093943;28;20115;-61
2023/05/04 10:08:16;;;;;;;21.60;14.20;;;15.80;99.90;;;;;;5093746;28;20143;-60
2023/05/04 10:10:43;;;;;;;27.00;14.15;;;15.80;99.90;;;;;;5093456;28;20048;-60
2023/05/04 10:13:10;;;;;;;28.13;14.23;;;15.70;99.90;;;;;;5093616;28;20126;-61
2023/05/04 10:15:36;;;;;;;22.23;13.52;;;15.80;99.90;;;;;;5093720;28;20040;-61
2023/05/04 10:18:03;;;;;;;29.92;14.18;;;15.90;99.90;;;;;;5093566;28;20068;-60
2023/05/04 10:20:30;;;;;;;20.60;13.00;;;15.90;99.90;;;;;;5093176;28;20475;-61
2023/05/04 10:22:57;;;;;;;26.20;13.43;;;16.10;99.90;;;;;;5093372;28;20048;-60
2023/05/04 10:25:24;;;;;;;19.98;13.82;;;16.20;99.90;;;;;;5093748;28;20040;-61
2023/05/04 10:27:50;;;;;;;19.30;13.80;;;16.20;99.90;;;;;;5093826;28;20040;-60
2023/05/04 10:30:17;;;;;;;21.20;13.40;;;16.20;99.90;;;;;;5093720;28;20044;-60
2023/05/04 10:32:44;;;;;;;23.27;13.60;;;16.30;99.90;;;;;;5093559;28;20048;-62
2023/05/04 10:35:11;;;;;;;19.63;12.85;;;16.50;99.90;;;;;;5075536;28;20048;-60
2023/05/04 10:37:38;;;;;;;26.23;13.77;;;16.40;99.90;;;;;;5093419;28;20055;-61
2023/05/04 10:40:05;;;;;;;25.13;13.52;;;16.40;99.90;;;;;;5093362;28;20134;-60
2023/05/04 10:42:33;;;;;;;18.27;12.70;;;16.40;99.90;;;;;;5075377;28;20064;-61
2023/05/04 10:45:00;;;;;;;21.17;13.15;;;16.40;99.90;;;;;;5093886;28;20040;-60
2023/05/04 10:47:27;;;;;;;21.95;13.52;;;16.30;99.90;;;;;;5095856;28;20040;-61
2023/05/04 10:49:54;;;;;;;19.48;12.60;;;16.30;99.90;;;;;;5096961;28;20497;-61
2023/05/04 10:52:21;;;;;;;18.35;12.77;;;16.40;99.90;;;;;;5097358;28;20040;-60
2023/05/04 10:54:47;;;;;;;22.08;13.57;;;16.40;99.90;;;;;;5097249;28;20097;-61
2023/05/04 10:57:16;;;;;;;21.02;12.85;;;16.50;99.90;;;;;;5097257;28;20055;-61
2023/05/04 10:59:46;;;;;;;20.52;12.25;;;16.50;99.90;;;;;;5097175;28;20032;-61
2023/05/04 11:02:13;;;;;;;23.55;12.90;;;16.60;99.90;;;;;;5097237;28;20036;-60
2023/05/04 11:04:40;;;;;;;21.13;13.20;;;16.80;99.90;;;;;;5097264;28;20036;-60
2023/05/04 11:07:07;;;;;;;23.02;13.68;;;16.70;99.90;;;;;;5096851;28;20036;-61
2023/05/04 11:09:34;;;;;;;23.67;13.73;;;16.60;99.90;;;;;;5096534;28;20044;-62
2023/05/04 11:12:01;;;;;;;16.73;12.80;;;16.60;99.90;;;;;;5096856;28;20063;-60
2023/05/04 11:14:28;;;;;;;18.55;13.43;;;16.60;99.90;;;;;;5078553;28;20068;-58
2023/05/04 11:16:55;;;;;;;27.08;13.77;;;16.60;99.90;;;;;;5096229;28;20075;-60
2023/05/04 11:19:21;;;;;;;22.58;13.68;;;16.60;99.90;;;;;;5096660;28;20036;-60
2023/05/04 11:21:48;;;;;;;23.33;13.02;;;16.70;99.90;;;;;;5078344;28;20483;-61
2023/05/04 11:24:15;;;;;;;18.88;13.38;;;16.90;99.90;;;;;;5078620;28;20043;-59
2023/05/04 11:26:42;;;;;;;19.45;13.32;;;17.00;99.90;;;;;;5096550;28;20063;-60
2023/05/04 11:29:08;;;;;;;22.08;14.02;;;17.10;99.90;;;;;;5078594;28;20089;-59
2023/05/04 11:31:35;;;;;;;21.10;13.82;;;17.20;99.90;;;;;;5096168;28;20064;-59
2023/05/04 11:34:02;;;;;;;19.13;13.13;;;17.20;99.90;;;;;;5096303;28;20051;-59
2023/05/04 11:36:29;;;;;;;26.90;13.57;;;17.30;99.90;;;;;;5096379;28;20047;-60
2023/05/04 11:38:56;;;;;;;21.15;14.10;;;17.30;99.90;;;;;;5096140;28;20042;-59
2023/05/04 11:41:23;;;;;;;24.67;13.45;;;17.30;99.90;;;;;;5095932;28;20085;-61
2023/05/04 11:43:50;;;;;;;26.05;13.40;;;17.40;99.90;;;;;;5096218;28;20040;-61
2023/05/04 11:46:16;;;;;;;28.05;13.35;;;17.50;99.90;;;;;;5096215;28;20040;-60
2023/05/04 11:48:43;;;;;;;22.95;13.35;;;17.60;99.90;;;;;;5096296;28;20071;-58
2023/05/04 11:51:10;;;;;;;24.75;13.40;;;17.50;99.90;;;;;;5079540;28;20063;-60
2023/05/04 11:53:37;;;;;;;22.50;14.43;;;17.50;99.90;;;;;;5074376;28;20071;-60
2023/05/04 11:56:05;;;;;;;20.67;13.65;;;17.70;99.90;;;;;;5074917;28;20127;-57
2023/05/04 11:58:32;;;;;;;24.30;13.40;;;17.60;99.90;;;;;;5074816;28;20472;-59
2023/05/04 12:00:59;;;;;;;18.20;13.40;;;17.70;99.90;;;;;;5057292;28;20070;-61
2023/05/04 12:03:25;;;;;;;21.40;14.23;;;17.80;99.90;;;;;;5074947;28;20089;-61
2023/05/04 12:06:01;;;;;;;22.88;14.30;;;17.70;99.90;;;;;;5075092;28;20119;-59
2023/05/04 12:08:33;;;;;;;27.85;14.75;;;17.60;99.90;;;;;;5074896;28;20040;-61
2023/05/04 12:11:00;;;;;;;22.30;14.52;;;17.60;99.90;;;;;;5074569;28;20127;-61
2023/05/04 12:13:26;;;;;;;22.00;14.23;;;17.70;99.90;;;;;;5074914;28;20111;-58
2023/05/04 12:15:53;;;;;;;20.58;14.95;;;17.60;99.90;;;;;;5057126;28;20517;-60
2023/05/04 12:18:20;;;;;;;26.25;15.70;;;17.50;99.90;;;;;;5074561;28;20098;-60
2023/05/04 12:20:47;;;;;;;27.83;14.90;;;17.50;99.90;;;;;;5056854;28;20047;-62
2023/05/04 12:23:14;;;;;;;25.10;15.05;;;17.40;99.90;;;;;;5074427;28;20041;-61
2023/05/04 12:25:41;;;;;;;20.42;16.00;;;17.30;99.90;;;;;;5074684;28;20043;-61
2023/05/04 12:28:25;;;;;;;24.75;16.85;;;17.30;99.90;;;;;;5074671;28;20050;-61